createdAt,value
2024-04-14T00:01:54.413Z,12.00
2024-04-14T00:04:27.894Z,12.00
2024-04-14T00:07:01.563Z,12.00
2024-04-14T00:09:35.109Z,12.00
2024-04-14T00:12:09.908Z,12.00
2024-04-14T00:14:43.358Z,12.00
2024-04-14T00:17:16.733Z,12.00
2024-04-14T00:19:53.932Z,12.00
2024-04-14T00:22:28.223Z,12.00
2024-04-14T00:25:01.655Z,12.00
2024-04-14T00:27:35.174Z,12.00
2024-04-14T00:30:11.585Z,12.00
2024-04-14T00:32:45.212Z,12.00
2024-04-14T00:35:18.985Z,12.00
2024-04-14T00:37:52.419Z,12.00
2024-04-14T00:40:27.248Z,11.96
2024-04-14T00:43:03.823Z,11.98
2024-04-14T00:45:37.381Z,11.94
2024-04-14T00:48:14.252Z,11.90
2024-04-14T00:50:50.958Z,11.90
2024-04-14T00:53:24.996Z,11.90
2024-04-14T00:55:58.578Z,11.90
2024-04-14T00:58:32.257Z,11.90
2024-04-14T01:01:06.068Z,11.86
2024-04-14T01:03:40.110Z,11.80
2024-04-14T01:06:14.048Z,11.80
2024-04-14T01:08:47.548Z,11.80
2024-04-14T01:11:20.977Z,11.70
2024-04-14T01:13:54.476Z,11.70
2024-04-14T01:16:29.258Z,11.60
2024-04-14T01:19:03.170Z,11.60
2024-04-14T01:21:37.072Z,11.50
2024-04-14T01:24:10.860Z,11.50
2024-04-14T01:26:44.311Z,11.40
2024-04-14T01:29:18.714Z,11.40
2024-04-14T01:31:52.049Z,11.30
2024-04-14T01:34:25.533Z,11.30
2024-04-14T01:36:58.981Z,11.20
2024-04-14T01:39:32.366Z,11.20
2024-04-14T01:42:06.356Z,11.10
2024-04-14T01:44:39.718Z,11.10
2024-04-14T01:47:13.631Z,11.10
2024-04-14T01:49:47.122Z,11.10
2024-04-14T01:52:20.447Z,11.10
2024-04-14T01:54:53.810Z,11.10
2024-04-14T01:57:27.337Z,11.00
2024-04-14T02:00:01.183Z,11.00
2024-04-14T02:02:35.152Z,11.00
2024-04-14T02:05:09.924Z,10.90
2024-04-14T02:07:43.433Z,10.90
2024-04-14T02:10:17.094Z,10.82
2024-04-14T02:12:50.518Z,10.80
2024-04-14T02:15:23.922Z,10.80
2024-04-14T02:17:57.380Z,10.80
2024-04-14T02:20:31.050Z,10.80
2024-04-14T02:23:05.654Z,10.80
2024-04-14T02:25:39.081Z,10.80
2024-04-14T02:28:12.625Z,10.80
2024-04-14T02:30:46.061Z,10.80
2024-04-14T02:33:20.053Z,10.70
2024-04-14T02:36:02.684Z,10.70
2024-04-14T02:38:36.100Z,10.70
2024-04-14T02:41:10.020Z,10.60
2024-04-14T02:43:45.518Z,10.60
2024-04-14T02:46:19.156Z,10.60
2024-04-14T02:48:55.866Z,10.60
2024-04-14T02:51:29.728Z,10.50
2024-04-14T02:54:03.438Z,10.50
2024-04-14T02:56:36.754Z,10.50
2024-04-14T02:59:10.097Z,10.50
2024-04-14T03:01:43.558Z,10.50
2024-04-14T03:04:17.020Z,10.50
2024-04-14T03:06:50.655Z,10.42
2024-04-14T03:09:24.145Z,10.40
2024-04-14T03:11:57.536Z,10.40
2024-04-14T03:14:30.834Z,10.40
2024-04-14T03:17:04.270Z,10.40
2024-04-14T03:19:37.641Z,10.40
2024-04-14T03:22:11.079Z,10.40
2024-04-14T03:24:44.491Z,10.40
2024-04-14T03:27:17.980Z,10.40
2024-04-14T03:29:51.410Z,10.36
2024-04-14T03:32:25.192Z,10.40
2024-04-14T03:34:58.486Z,10.40
2024-04-14T03:37:31.872Z,10.40
2024-04-14T03:40:06.360Z,10.40
2024-04-14T03:42:39.757Z,10.30
2024-04-14T03:45:14.207Z,10.30
2024-04-14T03:47:47.641Z,10.30
2024-04-14T03:50:22.158Z,10.20
2024-04-14T03:52:55.499Z,10.20
2024-04-14T03:55:29.452Z,10.20
2024-04-14T03:58:03.219Z,10.10
2024-04-14T04:00:36.888Z,10.10
2024-04-14T04:03:11.850Z,10.10
2024-04-14T04:05:53.905Z,10.10
2024-04-14T04:08:27.664Z,10.10
2024-04-14T04:11:06.193Z,10.08
2024-04-14T04:13:39.847Z,10.06
2024-04-14T04:16:14.864Z,10.02
2024-04-14T04:18:48.382Z,10.10
2024-04-14T04:21:23.321Z,10.10
2024-04-14T04:23:56.808Z,10.10
2024-04-14T04:26:31.114Z,10.10
2024-04-14T04:29:04.626Z,10.10
2024-04-14T04:31:38.148Z,10.16
2024-04-14T04:34:11.605Z,10.20
2024-04-14T04:36:48.029Z,10.20
2024-04-14T04:39:21.612Z,10.20
2024-04-14T04:41:55.011Z,10.20
2024-04-14T04:44:28.470Z,10.30
2024-04-14T04:47:02.189Z,10.40
2024-04-14T04:49:35.946Z,10.40
2024-04-14T04:52:09.532Z,10.50
2024-04-14T04:54:43.217Z,10.58
2024-04-14T04:57:16.746Z,10.60
2024-04-14T04:59:50.104Z,10.70
2024-04-14T05:02:24.236Z,10.70
2024-04-14T05:04:57.946Z,10.80
2024-04-14T05:07:31.356Z,10.90
2024-04-14T05:10:05.706Z,11.00
2024-04-14T05:12:39.213Z,11.02
2024-04-14T05:15:12.693Z,11.10
2024-04-14T05:17:46.320Z,11.22
2024-04-14T05:20:19.975Z,11.34
2024-04-14T05:22:53.325Z,11.42
2024-04-14T05:25:26.707Z,11.60
2024-04-14T05:28:00.102Z,11.70
2024-04-14T05:30:36.259Z,11.80
2024-04-14T05:33:10.789Z,12.00
2024-04-14T05:35:53.356Z,12.10
2024-04-14T05:38:27.401Z,12.30
2024-04-14T05:41:00.958Z,12.42
2024-04-14T05:43:34.416Z,12.60
2024-04-14T05:46:08.093Z,12.72
2024-04-14T05:48:42.876Z,12.90
2024-04-14T05:51:16.313Z,13.10
2024-04-14T05:53:50.721Z,13.30
2024-04-14T05:56:24.197Z,13.46
2024-04-14T05:58:57.605Z,13.64
2024-04-14T06:01:31.288Z,13.90
2024-04-14T06:04:05.171Z,14.10
2024-04-14T06:06:38.818Z,14.30
2024-04-14T06:09:12.532Z,14.40
2024-04-14T06:11:45.946Z,14.60
2024-04-14T06:14:19.877Z,14.80
2024-04-14T06:16:53.484Z,15.00
2024-04-14T06:19:27.101Z,15.30
2024-04-14T06:22:00.655Z,15.50
2024-04-14T06:24:35.312Z,15.80
2024-04-14T06:27:09.164Z,16.20
2024-04-14T06:29:42.605Z,16.60
2024-04-14T06:32:16.168Z,16.94
2024-04-14T06:34:49.644Z,17.30
2024-04-14T06:37:23.033Z,17.60
2024-04-14T06:39:56.993Z,17.90
2024-04-14T06:42:30.606Z,18.18
2024-04-14T06:45:04.230Z,18.40
2024-04-14T06:47:37.929Z,18.60
2024-04-14T06:50:11.942Z,18.76
2024-04-14T06:52:45.557Z,18.90
2024-04-14T06:55:20.110Z,19.10
2024-04-14T06:57:53.724Z,19.30
2024-04-14T07:00:27.393Z,19.40
2024-04-14T07:03:01.052Z,19.60
2024-04-14T07:05:34.892Z,19.70
2024-04-14T07:08:09.598Z,19.80
2024-04-14T07:10:43.661Z,19.90
2024-04-14T07:13:17.337Z,20.00
2024-04-14T07:15:50.948Z,20.10
2024-04-14T07:18:24.703Z,20.20
2024-04-14T07:21:03.520Z,20.30
2024-04-14T07:23:36.999Z,20.40
2024-04-14T07:26:11.128Z,20.50
2024-04-14T07:28:44.980Z,20.60
2024-04-14T07:31:18.760Z,20.70
2024-04-14T07:33:58.323Z,20.80
2024-04-14T07:36:31.954Z,20.80
2024-04-14T07:39:05.843Z,20.90
2024-04-14T07:41:39.473Z,21.00
2024-04-14T07:44:13.503Z,21.10
2024-04-14T07:46:47.761Z,21.20
2024-04-14T07:49:21.783Z,21.40
2024-04-14T07:51:55.837Z,21.60
2024-04-14T07:54:29.494Z,21.70
2024-04-14T07:57:05.221Z,21.76
2024-04-14T07:59:39.054Z,21.80
2024-04-14T08:02:13.478Z,21.80
2024-04-14T08:04:47.318Z,21.90
2024-04-14T08:07:20.871Z,21.98
2024-04-14T08:09:54.509Z,22.10
2024-04-14T08:12:29.162Z,22.20
2024-04-14T08:15:04.096Z,22.20
2024-04-14T08:17:37.973Z,22.30
2024-04-14T08:20:13.321Z,22.30
2024-04-14T08:22:47.326Z,22.40
2024-04-14T08:25:21.034Z,22.52
2024-04-14T08:27:54.542Z,22.60
2024-04-14T08:30:28.080Z,22.78
2024-04-14T08:33:01.710Z,22.90
2024-04-14T08:35:35.540Z,22.90
2024-04-14T08:38:10.560Z,22.90
2024-04-14T08:40:52.146Z,23.04
2024-04-14T08:43:26.184Z,23.16
2024-04-14T08:46:01.340Z,23.28
2024-04-14T08:48:35.766Z,23.52
2024-04-14T08:51:11.141Z,23.70
2024-04-14T08:53:46.731Z,23.80
2024-04-14T08:56:20.553Z,23.90
2024-04-14T08:59:04.096Z,24.00
2024-04-14T09:01:39.320Z,24.00
2024-04-14T09:04:14.948Z,24.00
2024-04-14T09:06:50.402Z,24.00
2024-04-14T09:09:24.307Z,23.98
2024-04-14T09:12:03.570Z,24.00
2024-04-14T09:14:37.881Z,24.00
2024-04-14T09:17:12.477Z,24.10
2024-04-14T09:19:46.250Z,24.20
2024-04-14T09:22:21.612Z,24.40
2024-04-14T09:24:55.982Z,24.40
2024-04-14T09:27:29.945Z,24.50
2024-04-14T09:30:17.917Z,24.54
2024-04-14T09:32:53.310Z,24.60
2024-04-14T09:35:28.195Z,24.70
2024-04-14T09:38:02.978Z,24.78
2024-04-14T09:40:38.618Z,24.80
2024-04-14T09:43:13.881Z,24.78
2024-04-14T09:45:50.467Z,24.50
2024-04-14T09:48:27.525Z,24.30
2024-04-14T09:51:03.642Z,24.00
2024-04-14T09:53:38.609Z,23.60
2024-04-14T09:56:13.452Z,23.30
2024-04-14T09:58:47.268Z,23.00
2024-04-14T10:01:30.305Z,22.90
2024-04-14T10:04:07.558Z,22.80
2024-04-14T10:06:44.064Z,22.60
2024-04-14T10:09:18.679Z,22.60
2024-04-14T10:11:52.242Z,22.80
2024-04-14T10:14:28.348Z,22.90
2024-04-14T10:17:02.545Z,23.30
2024-04-14T10:19:39.674Z,23.42
2024-04-14T10:22:14.348Z,23.50
2024-04-14T10:24:55.396Z,23.60
2024-04-14T10:27:31.700Z,23.60
2024-04-14T10:30:07.661Z,23.90
2024-04-14T10:32:45.888Z,24.08
2024-04-14T10:35:26.547Z,24.08
2024-04-14T10:38:00.470Z,24.30
2024-04-14T10:40:35.331Z,24.78
2024-04-14T10:43:15.251Z,25.08
2024-04-14T10:45:49.035Z,25.14
2024-04-14T10:48:22.748Z,25.20
2024-04-14T10:50:57.001Z,25.40
2024-04-14T10:53:31.969Z,25.52
2024-04-14T10:56:08.272Z,25.70
2024-04-14T10:58:42.308Z,25.80
2024-04-14T11:01:17.536Z,25.90
2024-04-14T11:03:52.499Z,25.80
2024-04-14T11:06:27.208Z,25.60
2024-04-14T11:09:01.386Z,25.60
2024-04-14T11:11:35.420Z,25.70
2024-04-14T11:14:09.808Z,25.80
2024-04-14T11:16:43.418Z,25.80
2024-04-14T11:19:17.317Z,26.10
2024-04-14T11:21:52.342Z,26.42
2024-04-14T11:24:26.422Z,26.70
2024-04-14T11:27:00.742Z,26.70
2024-04-14T11:29:34.694Z,26.60
2024-04-14T11:32:29.412Z,26.40
2024-04-14T11:35:04.478Z,25.88
2024-04-14T11:37:39.777Z,25.40
2024-04-14T11:40:16.458Z,24.92
2024-04-14T11:42:50.360Z,24.42
2024-04-14T11:45:24.190Z,24.00
2024-04-14T11:47:57.809Z,23.70
2024-04-14T11:50:31.363Z,23.50
2024-04-14T11:53:05.193Z,23.40
2024-04-14T11:55:38.882Z,23.60
2024-04-14T11:58:13.719Z,23.94
2024-04-14T12:00:47.764Z,24.50
2024-04-14T12:03:22.460Z,24.90
2024-04-14T12:05:56.091Z,25.18
2024-04-14T12:08:30.000Z,25.68
2024-04-14T12:11:03.942Z,26.14
2024-04-14T12:13:37.715Z,26.42
2024-04-14T12:16:12.241Z,26.60
2024-04-14T12:18:45.890Z,26.80
2024-04-14T12:21:20.012Z,26.80
2024-04-14T12:23:55.756Z,26.70
2024-04-14T12:26:31.107Z,26.50
2024-04-14T12:29:04.988Z,26.54
2024-04-14T12:31:38.817Z,26.60
2024-04-14T12:34:12.601Z,26.60
2024-04-14T12:36:47.013Z,26.30
2024-04-14T12:39:30.431Z,25.90
2024-04-14T12:42:08.237Z,26.30
2024-04-14T12:44:46.998Z,26.54
2024-04-14T12:47:20.610Z,27.00
2024-04-14T12:49:55.885Z,27.48
2024-04-14T12:52:29.592Z,27.50
2024-04-14T12:55:03.516Z,27.50
2024-04-14T12:57:37.309Z,27.24
2024-04-14T13:00:13.151Z,26.80
2024-04-14T13:02:46.804Z,26.30
2024-04-14T13:05:20.705Z,25.92
2024-04-14T13:07:54.255Z,25.64
2024-04-14T13:10:28.704Z,25.30
2024-04-14T13:13:02.539Z,25.24
2024-04-14T13:15:37.349Z,25.30
2024-04-14T13:18:11.565Z,25.20
2024-04-14T13:20:45.232Z,25.20
2024-04-14T13:23:22.061Z,25.00
2024-04-14T13:25:56.891Z,25.12
2024-04-14T13:28:32.227Z,25.82
2024-04-14T13:31:06.136Z,26.86
2024-04-14T13:33:40.248Z,27.52
2024-04-14T13:36:14.078Z,27.80
2024-04-14T13:38:47.714Z,27.72
2024-04-14T13:41:21.722Z,28.82
2024-04-14T13:43:57.398Z,29.14
2024-04-14T13:46:31.328Z,29.20
2024-04-14T13:49:05.044Z,29.86
2024-04-14T13:51:38.674Z,30.10
2024-04-14T13:54:13.793Z,30.50
2024-04-14T13:56:47.687Z,30.66
2024-04-14T13:59:22.972Z,30.60
2024-04-14T14:01:57.180Z,30.40
2024-04-14T14:04:31.147Z,30.60
2024-04-14T14:07:05.377Z,30.74
2024-04-14T14:09:39.247Z,30.64
2024-04-14T14:12:15.655Z,30.04
2024-04-14T14:14:52.305Z,29.70
2024-04-14T14:17:26.125Z,29.54
2024-04-14T14:20:00.019Z,29.00
2024-04-14T14:22:33.964Z,28.50
2024-04-14T14:25:09.060Z,28.34
2024-04-14T14:27:43.026Z,27.70
2024-04-14T14:30:17.174Z,27.18
2024-04-14T14:32:59.244Z,26.60
2024-04-14T14:35:51.260Z,26.66
2024-04-14T14:38:33.668Z,26.04
2024-04-14T14:41:12.349Z,25.70
2024-04-14T14:43:45.887Z,26.48
2024-04-14T14:46:19.977Z,27.24
2024-04-14T14:48:55.863Z,28.52
2024-04-14T14:51:31.308Z,29.42
2024-04-14T14:54:08.081Z,29.58
2024-04-14T14:56:42.831Z,29.24
2024-04-14T14:59:16.913Z,29.30
2024-04-14T15:01:50.756Z,28.96
2024-04-14T15:04:24.799Z,29.50
2024-04-14T15:06:59.659Z,30.44
2024-04-14T15:09:33.700Z,31.24
2024-04-14T15:12:12.506Z,32.22
2024-04-14T15:14:46.598Z,33.14
2024-04-14T15:17:20.227Z,32.58
2024-04-14T15:19:54.147Z,31.96
2024-04-14T15:22:27.928Z,32.20
2024-04-14T15:25:01.725Z,32.16
2024-04-14T15:27:35.647Z,32.20
2024-04-14T15:30:13.083Z,31.64
2024-04-14T15:32:47.065Z,31.60
2024-04-14T15:35:21.602Z,31.72
2024-04-14T15:37:55.563Z,30.50
2024-04-14T15:40:32.450Z,30.08
2024-04-14T15:43:06.838Z,29.20
2024-04-14T15:45:42.497Z,27.88
2024-04-14T15:48:16.291Z,26.76
2024-04-14T15:50:52.986Z,25.80
2024-04-14T15:53:30.451Z,25.10
2024-04-14T15:56:08.742Z,24.52
2024-04-14T15:58:42.430Z,24.20
2024-04-14T16:01:16.340Z,23.80
2024-04-14T16:03:50.220Z,23.50
2024-04-14T16:06:24.001Z,23.30
2024-04-14T16:08:58.586Z,23.10
2024-04-14T16:11:32.673Z,22.82
2024-04-14T16:14:06.355Z,22.50
2024-04-14T16:16:39.943Z,22.34
2024-04-14T16:19:14.344Z,22.70
2024-04-14T16:21:48.299Z,22.80
2024-04-14T16:24:22.499Z,22.48
2024-04-14T16:26:57.187Z,22.82
2024-04-14T16:29:30.917Z,24.34
2024-04-14T16:32:04.987Z,25.56
2024-04-14T16:34:39.364Z,26.42
2024-04-14T16:37:12.905Z,27.24
2024-04-14T16:39:48.993Z,27.92
2024-04-14T16:42:23.367Z,28.30
2024-04-14T16:44:57.170Z,28.30
2024-04-14T16:47:31.341Z,27.90
2024-04-14T16:50:05.978Z,28.00
2024-04-14T16:52:41.236Z,27.92
2024-04-14T16:55:16.777Z,27.40
2024-04-14T16:57:52.640Z,26.62
2024-04-14T17:00:27.344Z,25.40
2024-04-14T17:03:01.750Z,24.22
2024-04-14T17:05:36.189Z,23.28
2024-04-14T17:08:11.006Z,22.68
2024-04-14T17:10:45.005Z,22.10
2024-04-14T17:13:19.939Z,21.60
2024-04-14T17:15:54.556Z,20.98
2024-04-14T17:18:29.036Z,20.52
2024-04-14T17:21:03.096Z,20.20
2024-04-14T17:23:37.166Z,19.80
2024-04-14T17:26:11.059Z,19.40
2024-04-14T17:28:44.743Z,19.06
2024-04-14T17:31:18.657Z,18.78
2024-04-14T17:33:52.454Z,18.46
2024-04-14T17:36:29.922Z,18.20
2024-04-14T17:39:03.662Z,18.00
2024-04-14T17:41:37.298Z,17.80
2024-04-14T17:44:11.200Z,17.54
2024-04-14T17:46:44.845Z,17.30
2024-04-14T17:49:18.461Z,17.10
2024-04-14T17:51:52.304Z,16.96
2024-04-14T17:54:26.281Z,16.80
2024-04-14T17:57:00.375Z,16.60
2024-04-14T17:59:36.151Z,16.40
2024-04-14T18:02:10.156Z,16.30
2024-04-14T18:04:45.124Z,16.18
2024-04-14T18:07:20.197Z,16.04
2024-04-14T18:09:54.170Z,15.90
2024-04-14T18:12:28.488Z,15.80
2024-04-14T18:15:02.080Z,15.70
2024-04-14T18:17:35.853Z,15.60
2024-04-14T18:20:12.789Z,15.50
2024-04-14T18:22:46.732Z,15.40
2024-04-14T18:25:20.744Z,15.30
2024-04-14T18:27:54.658Z,15.20
2024-04-14T18:30:28.221Z,15.12
2024-04-14T18:33:03.755Z,15.04
2024-04-14T18:35:37.809Z,14.94
2024-04-14T18:38:11.914Z,14.80
2024-04-14T18:40:45.807Z,14.70
2024-04-14T18:43:21.467Z,14.54
2024-04-14T18:46:04.144Z,14.40
2024-04-14T18:48:40.648Z,14.24
2024-04-14T18:51:14.608Z,14.10
2024-04-14T18:53:49.735Z,14.00
2024-04-14T18:56:33.414Z,13.90
2024-04-14T18:59:07.179Z,13.74
2024-04-14T19:01:41.185Z,13.60
2024-04-14T19:04:15.283Z,13.50
2024-04-14T19:06:49.802Z,13.40
2024-04-14T19:09:24.367Z,13.20
2024-04-14T19:11:58.542Z,13.10
2024-04-14T19:14:32.774Z,13.00
2024-04-14T19:17:07.128Z,12.90
2024-04-14T19:19:42.598Z,12.80
2024-04-14T19:22:16.467Z,12.76
2024-04-14T19:24:51.198Z,12.70
2024-04-14T19:27:25.323Z,12.68
2024-04-14T19:29:59.023Z,12.60
2024-04-14T19:32:34.427Z,12.54
2024-04-14T19:35:11.626Z,12.50
2024-04-14T19:37:51.717Z,12.50
2024-04-14T19:40:31.040Z,12.50
2024-04-14T19:43:05.237Z,12.46
2024-04-14T19:45:39.585Z,12.40
2024-04-14T19:48:13.746Z,12.40
2024-04-14T19:50:47.616Z,12.30
2024-04-14T19:53:21.632Z,12.20
2024-04-14T19:55:55.263Z,12.10
2024-04-14T19:58:30.226Z,12.00
2024-04-14T20:01:06.302Z,12.00
2024-04-14T20:03:42.091Z,11.90
2024-04-14T20:06:15.807Z,11.90
2024-04-14T20:08:49.335Z,11.80
2024-04-14T20:11:22.924Z,11.70
2024-04-14T20:13:58.979Z,11.60
2024-04-14T20:16:35.278Z,11.60
2024-04-14T20:19:10.612Z,11.50
2024-04-14T20:21:44.372Z,11.48
2024-04-14T20:24:17.930Z,11.44
2024-04-14T20:26:51.539Z,11.40
2024-04-14T20:29:31.440Z,11.40
2024-04-14T20:32:05.163Z,11.30
2024-04-14T20:34:38.831Z,11.30
2024-04-14T20:37:12.310Z,11.30
2024-04-14T20:39:46.157Z,11.20
2024-04-14T20:42:23.612Z,11.10
2024-04-14T20:44:57.350Z,11.08
2024-04-14T20:47:31.116Z,11.00
2024-04-14T20:50:05.708Z,10.90
2024-04-14T20:52:39.208Z,10.90
2024-04-14T20:55:12.914Z,10.88
2024-04-14T20:57:46.418Z,10.80
2024-04-14T21:00:20.346Z,10.80
2024-04-14T21:02:53.870Z,10.80
2024-04-14T21:05:27.390Z,10.70
2024-04-14T21:08:00.945Z,10.70
2024-04-14T21:10:34.485Z,10.70
2024-04-14T21:13:12.388Z,10.70
2024-04-14T21:15:46.357Z,10.70
2024-04-14T21:18:21.096Z,10.70
2024-04-14T21:20:59.770Z,10.62
2024-04-14T21:23:33.322Z,10.60
2024-04-14T21:26:10.285Z,10.60
2024-04-14T21:28:43.983Z,10.60
2024-04-14T21:31:17.978Z,10.70
2024-04-14T21:33:51.634Z,10.70
2024-04-14T21:36:25.281Z,10.68
2024-04-14T21:39:00.989Z,10.62
2024-04-14T21:41:34.510Z,10.60
2024-04-14T21:44:08.425Z,10.60
2024-04-14T21:54:35.521Z,10.50
2024-04-14T21:57:09.487Z,10.50
2024-04-14T21:59:42.929Z,10.50
2024-04-14T22:02:16.793Z,10.50
2024-04-14T22:04:51.939Z,10.50
2024-04-14T22:07:25.763Z,10.40
2024-04-14T22:09:59.321Z,10.40
2024-04-14T22:12:33.178Z,10.30
2024-04-14T22:15:07.746Z,10.30
2024-04-14T22:17:41.206Z,10.30
2024-04-14T22:20:14.815Z,10.24
2024-04-14T22:22:49.044Z,10.20
2024-04-14T22:25:22.610Z,10.20
2024-04-14T22:27:56.186Z,10.10
2024-04-14T22:30:30.032Z,10.00
2024-04-14T22:33:03.981Z,9.90
2024-04-14T22:35:37.715Z,9.80
2024-04-14T22:38:11.500Z,9.80
2024-04-14T22:40:44.901Z,9.70
2024-04-14T22:43:18.330Z,9.70
2024-04-14T22:45:51.938Z,9.64
2024-04-14T22:48:26.564Z,9.60
2024-04-14T22:50:59.987Z,9.50
2024-04-14T22:53:33.452Z,9.50
2024-04-14T22:56:07.784Z,9.40
2024-04-14T22:58:41.358Z,9.40
2024-04-14T23:01:14.826Z,9.40
2024-04-14T23:03:48.745Z,9.36
2024-04-14T23:06:22.342Z,9.30
2024-04-14T23:08:55.656Z,9.32
2024-04-14T23:11:29.071Z,9.40
2024-04-14T23:14:02.457Z,9.40
2024-04-14T23:16:36.321Z,9.50
2024-04-14T23:19:09.890Z,9.50
2024-04-14T23:21:43.346Z,9.60
2024-04-14T23:24:16.870Z,9.62
2024-04-14T23:26:50.329Z,9.70
2024-04-14T23:29:29.135Z,9.70
2024-04-14T23:32:25.091Z,9.72
2024-04-14T23:35:03.511Z,9.80
2024-04-14T23:37:40.239Z,9.80
2024-04-14T23:40:14.399Z,9.80
2024-04-14T23:42:47.952Z,9.90
2024-04-14T23:45:21.649Z,9.98
2024-04-14T23:47:55.145Z,10.00
2024-04-14T23:50:28.660Z,10.10
2024-04-14T23:53:02.064Z,10.10
2024-04-14T23:55:35.509Z,10.16
2024-04-14T23:58:09.251Z,10.18
